createdAt,value
2023-05-02T00:01:16.844Z,42.73
2023-05-02T00:03:46.032Z,42.76
2023-05-02T00:06:15.279Z,42.61
2023-05-02T00:08:44.232Z,42.39
2023-05-02T00:11:14.414Z,42.66
2023-05-02T00:13:44.877Z,42.64
2023-05-02T00:16:14.044Z,42.46
2023-05-02T00:18:42.807Z,42.68
2023-05-02T00:21:12.902Z,42.51
2023-05-02T00:23:42.194Z,42.48
2023-05-02T00:26:11.286Z,42.99
2023-05-02T00:28:45.458Z,42.66
2023-05-02T00:31:14.660Z,42.58
2023-05-02T00:33:43.583Z,42.48
2023-05-02T00:36:16.082Z,42.42
2023-05-02T00:38:46.115Z,43.36
2023-05-02T00:41:15.266Z,43.04
2023-05-02T00:43:45.379Z,43.00
2023-05-02T00:46:15.490Z,42.81
2023-05-02T00:48:45.242Z,42.83
2023-05-02T00:51:14.513Z,43.35
2023-05-02T00:53:43.212Z,43.04
2023-05-02T00:56:12.537Z,43.05
2023-05-02T00:58:41.790Z,43.24
2023-05-02T01:01:29.244Z,43.19
2023-05-02T01:04:05.833Z,43.04
2023-05-02T01:06:41.746Z,43.08
2023-05-02T01:09:18.588Z,43.13
2023-05-02T01:11:50.034Z,43.28
2023-05-02T01:14:20.493Z,43.33
2023-05-02T01:16:50.235Z,43.38
2023-05-02T01:19:26.808Z,43.34
2023-05-02T01:21:57.677Z,43.14
2023-05-02T01:24:27.875Z,43.24
2023-05-02T01:27:02.982Z,44.84
2023-05-02T01:29:35.913Z,46.02
2023-05-02T01:32:05.825Z,48.08
2023-05-02T01:34:36.837Z,44.79
2023-05-02T01:37:08.204Z,44.52
2023-05-02T01:39:39.453Z,44.36
2023-05-02T01:42:08.847Z,44.08
2023-05-02T01:44:39.747Z,43.96
2023-05-02T01:47:10.839Z,43.82
2023-05-02T01:49:42.078Z,43.72
2023-05-02T01:52:13.125Z,43.77
2023-05-02T01:54:42.558Z,43.43
2023-05-02T01:57:13.473Z,43.52
2023-05-02T01:59:44.894Z,43.54
2023-05-02T02:02:15.135Z,43.83
2023-05-02T02:04:48.580Z,43.81
2023-05-02T02:07:17.998Z,43.76
2023-05-02T02:09:46.732Z,43.69
2023-05-02T02:12:18.911Z,43.82
2023-05-02T02:14:51.085Z,44.18
2023-05-02T02:17:25.796Z,44.52
2023-05-02T02:19:57.289Z,44.67
2023-05-02T02:22:28.568Z,44.37
2023-05-02T02:24:58.511Z,45.81
2023-05-02T02:27:28.389Z,46.12
2023-05-02T02:29:58.996Z,45.23
2023-05-02T02:32:28.517Z,44.87
2023-05-02T02:34:57.570Z,44.75
2023-05-02T02:37:30.853Z,44.91
2023-05-02T02:40:04.034Z,44.85
2023-05-02T02:42:40.111Z,44.70
2023-05-02T02:45:20.032Z,45.63
2023-05-02T02:47:52.130Z,44.84
2023-05-02T02:50:24.297Z,44.74
2023-05-02T02:52:56.553Z,44.71
2023-05-02T02:55:30.612Z,44.63
2023-05-02T02:58:01.619Z,44.69
2023-05-02T03:00:33.626Z,44.61
2023-05-02T03:03:02.954Z,44.84
2023-05-02T03:05:34.123Z,44.70
2023-05-02T03:08:03.378Z,44.70
2023-05-02T03:10:33.738Z,45.24
2023-05-02T03:13:03.146Z,45.13
2023-05-02T03:15:56.316Z,45.62
2023-05-02T03:18:31.815Z,45.20
2023-05-02T03:21:01.186Z,44.93
2023-05-02T03:23:30.646Z,46.21
2023-05-02T03:25:59.568Z,45.85
2023-05-02T03:28:28.654Z,48.16
2023-05-02T03:30:57.661Z,45.90
2023-05-02T03:33:27.242Z,46.12
2023-05-02T03:35:57.554Z,46.94
2023-05-02T03:38:27.271Z,46.47
2023-05-02T03:40:57.974Z,47.34
2023-05-02T03:43:28.224Z,47.47
2023-05-02T03:45:57.929Z,51.84
2023-05-02T03:48:27.948Z,51.85
2023-05-02T03:50:58.656Z,48.51
2023-05-02T03:53:28.225Z,47.22
2023-05-02T03:55:59.983Z,46.70
2023-05-02T03:58:40.812Z,46.60
2023-05-02T04:01:14.902Z,46.31
2023-05-02T04:03:45.855Z,46.33
2023-05-02T04:06:18.122Z,45.92
2023-05-02T04:08:52.006Z,45.96
2023-05-02T04:11:21.188Z,45.95
2023-05-02T04:13:52.710Z,45.81
2023-05-02T04:16:23.027Z,45.69
2023-05-02T04:18:52.426Z,45.79
2023-05-02T04:21:23.065Z,45.80
2023-05-02T04:23:52.482Z,46.90
2023-05-02T04:26:21.775Z,46.86
2023-05-02T04:29:02.409Z,45.94
2023-05-02T04:31:32.724Z,46.22
2023-05-02T04:34:04.360Z,48.82
2023-05-02T04:36:40.348Z,46.53
2023-05-02T04:39:12.501Z,46.26
2023-05-02T04:41:47.091Z,46.92
2023-05-02T04:44:17.202Z,46.30
2023-05-02T04:46:47.016Z,46.28
2023-05-02T04:49:17.707Z,45.77
2023-05-02T04:51:48.390Z,46.13
2023-05-02T04:54:17.801Z,45.82
2023-05-02T04:56:46.774Z,46.56
2023-05-02T04:59:16.968Z,46.01
2023-05-02T05:01:46.542Z,46.43
2023-05-02T05:04:15.823Z,46.10
2023-05-02T05:06:44.921Z,45.83
2023-05-02T05:09:15.547Z,45.78
2023-05-02T05:11:46.271Z,45.84
2023-05-02T05:14:17.106Z,45.66
2023-05-02T05:16:49.100Z,45.59
2023-05-02T05:19:18.492Z,46.35
2023-05-02T05:21:47.278Z,47.58
2023-05-02T05:24:20.691Z,47.14
2023-05-02T05:26:50.461Z,48.91
2023-05-02T05:29:20.066Z,52.74
2023-05-02T05:31:48.998Z,51.19
2023-05-02T05:34:23.415Z,52.32
2023-05-02T05:36:56.430Z,53.44
2023-05-02T05:39:28.790Z,50.54
2023-05-02T05:42:00.786Z,52.07
2023-05-02T05:44:30.166Z,51.17
2023-05-02T05:46:59.803Z,51.61
2023-05-02T05:49:30.349Z,51.67
2023-05-02T05:51:59.523Z,51.02
2023-05-02T05:54:29.973Z,51.50
2023-05-02T05:57:03.727Z,51.41
2023-05-02T05:59:35.957Z,51.42
2023-05-02T06:02:05.648Z,51.09
2023-05-02T06:04:35.265Z,50.98
2023-05-02T06:07:04.379Z,50.82
2023-05-02T06:09:34.795Z,50.46
2023-05-02T06:12:03.809Z,50.00
2023-05-02T06:14:34.992Z,50.33
2023-05-02T06:17:04.038Z,49.90
2023-05-02T06:19:33.122Z,49.62
2023-05-02T06:22:02.047Z,49.54
2023-05-02T06:24:31.175Z,49.37
2023-05-02T06:27:02.632Z,49.25
2023-05-02T06:29:31.932Z,49.07
2023-05-02T06:32:00.841Z,49.08
2023-05-02T06:34:30.209Z,48.89
2023-05-02T06:36:59.067Z,48.74
2023-05-02T06:39:28.394Z,48.63
2023-05-02T06:41:58.127Z,48.39
2023-05-02T06:44:31.202Z,48.33
2023-05-02T06:47:00.250Z,48.38
2023-05-02T06:49:29.289Z,48.09
2023-05-02T06:51:58.055Z,48.18
2023-05-02T06:54:27.103Z,48.10
2023-05-02T06:56:55.975Z,48.12
2023-05-02T06:59:25.044Z,48.12
2023-05-02T07:01:55.217Z,47.81
2023-05-02T07:04:25.223Z,47.96
2023-05-02T07:06:54.803Z,47.80
2023-05-02T07:09:23.947Z,47.66
2023-05-02T07:11:52.725Z,47.54
2023-05-02T07:14:22.015Z,47.43
2023-05-02T07:16:50.902Z,47.39
2023-05-02T07:19:21.581Z,47.46
2023-05-02T07:21:50.669Z,47.38
2023-05-02T07:24:19.782Z,47.21
2023-05-02T07:26:48.740Z,47.44
2023-05-02T07:29:17.830Z,47.55
2023-05-02T07:31:47.050Z,47.36
2023-05-02T07:34:16.144Z,47.42
2023-05-02T07:36:46.759Z,47.39
2023-05-02T07:39:15.963Z,47.28
2023-05-02T07:41:44.734Z,47.45
2023-05-02T07:44:13.952Z,46.48
2023-05-02T07:46:42.994Z,46.41
2023-05-02T07:49:12.271Z,46.47
2023-05-02T07:51:45.753Z,46.37
2023-05-02T07:54:19.953Z,45.33
2023-05-02T07:56:49.024Z,45.02
2023-05-02T07:59:20.377Z,44.88
2023-05-02T08:01:49.287Z,44.46
2023-05-02T08:04:18.479Z,44.65
2023-05-02T08:06:47.824Z,44.95
2023-05-02T08:09:16.899Z,44.98
2023-05-02T08:11:47.650Z,44.87
2023-05-02T08:14:17.352Z,44.73
2023-05-02T08:16:46.771Z,44.96
2023-05-02T08:19:16.343Z,44.98
2023-05-02T08:21:45.132Z,44.69
2023-05-02T08:24:14.317Z,44.69
2023-05-02T08:26:43.080Z,44.97
2023-05-02T08:29:13.874Z,44.93
2023-05-02T08:31:43.092Z,44.62
2023-05-02T08:34:12.224Z,45.10
2023-05-02T08:36:41.405Z,44.87
2023-05-02T08:39:10.848Z,43.83
2023-05-02T08:41:39.782Z,43.57
2023-05-02T08:44:08.941Z,41.53
2023-05-02T08:46:41.891Z,40.82
2023-05-02T08:49:12.499Z,41.08
2023-05-02T08:51:42.668Z,40.44
2023-05-02T08:54:12.116Z,39.63
2023-05-02T08:56:42.478Z,39.90
2023-05-02T08:59:11.688Z,39.92
2023-05-02T09:01:42.643Z,40.00
2023-05-02T09:04:12.368Z,39.47
2023-05-02T09:06:41.215Z,40.01
2023-05-02T09:09:10.482Z,38.72
2023-05-02T09:11:39.879Z,38.58
2023-05-02T09:14:15.491Z,37.94
2023-05-02T09:16:46.503Z,38.12
2023-05-02T09:19:25.045Z,37.92
2023-05-02T09:21:54.186Z,38.27
2023-05-02T09:24:23.583Z,38.42
2023-05-02T09:26:59.918Z,38.54
2023-05-02T09:29:30.697Z,38.38
2023-05-02T09:32:01.028Z,37.70
2023-05-02T09:34:30.946Z,38.28
2023-05-02T09:36:59.768Z,37.93
2023-05-02T09:39:30.072Z,38.19
2023-05-02T09:41:59.725Z,38.17
2023-05-02T09:44:37.432Z,38.54
2023-05-02T09:47:09.365Z,38.23
2023-05-02T09:49:42.605Z,38.06
2023-05-02T09:52:12.253Z,38.30
2023-05-02T09:54:41.505Z,38.42
2023-05-02T09:57:11.300Z,38.64
2023-05-02T09:59:41.245Z,38.82
2023-05-02T10:02:13.480Z,39.31
2023-05-02T10:04:43.153Z,39.62
2023-05-02T10:07:13.563Z,39.89
2023-05-02T10:09:44.595Z,40.27
2023-05-02T10:12:16.878Z,40.85
2023-05-02T10:14:50.178Z,41.05
2023-05-02T10:17:24.346Z,41.70
2023-05-02T10:19:57.238Z,42.27
2023-05-02T10:22:27.121Z,42.84
2023-05-02T10:25:00.072Z,43.22
2023-05-02T10:27:30.831Z,43.59
2023-05-02T10:30:00.840Z,43.92
2023-05-02T10:32:31.200Z,44.10
2023-05-02T10:35:04.199Z,44.47
2023-05-02T10:37:39.729Z,45.06
2023-05-02T10:40:11.455Z,45.11
2023-05-02T10:42:43.272Z,44.48
2023-05-02T10:45:13.269Z,45.02
2023-05-02T10:47:44.662Z,44.49
2023-05-02T10:50:13.948Z,44.44
2023-05-02T10:52:42.884Z,44.79
2023-05-02T10:55:20.550Z,44.51
2023-05-02T10:58:08.244Z,44.95
2023-05-02T11:00:37.686Z,43.92
2023-05-02T11:03:07.962Z,44.39
2023-05-02T11:05:57.252Z,44.57
2023-05-02T11:08:32.888Z,44.48
2023-05-02T11:11:17.022Z,44.95
2023-05-02T11:13:54.985Z,44.95
2023-05-02T11:16:24.222Z,45.43
2023-05-02T11:19:00.903Z,46.00
2023-05-02T11:21:32.810Z,46.34
2023-05-02T11:24:20.955Z,46.53
2023-05-02T11:26:50.855Z,46.87
2023-05-02T11:29:34.432Z,47.71
2023-05-02T11:32:04.008Z,47.55
2023-05-02T11:34:46.433Z,47.78
2023-05-02T11:37:16.795Z,48.38
2023-05-02T11:39:46.735Z,48.61
2023-05-02T11:42:31.269Z,48.78
2023-05-02T11:45:01.461Z,48.35
2023-05-02T11:47:34.157Z,48.68
2023-05-02T11:50:08.089Z,48.63
2023-05-02T11:52:38.786Z,48.94
2023-05-02T11:55:11.739Z,49.44
2023-05-02T11:57:41.303Z,49.54
2023-05-02T12:00:12.742Z,50.24
2023-05-02T12:02:43.928Z,51.23
2023-05-02T12:05:15.274Z,51.83
2023-05-02T12:07:45.937Z,52.06
2023-05-02T12:10:15.020Z,51.81
2023-05-02T12:12:44.969Z,52.60
2023-05-02T12:15:14.197Z,52.75
2023-05-02T12:17:44.659Z,52.67
2023-05-02T12:20:15.775Z,52.32
2023-05-02T12:22:45.088Z,52.46
2023-05-02T12:25:13.844Z,51.73
2023-05-02T12:27:43.252Z,51.82
2023-05-02T12:30:26.189Z,51.90
2023-05-02T12:32:59.095Z,51.81
2023-05-02T12:35:30.269Z,51.50
2023-05-02T12:38:09.615Z,51.57
2023-05-02T12:40:40.165Z,52.13
2023-05-02T12:43:10.756Z,51.96
2023-05-02T12:45:40.267Z,52.33
2023-05-02T12:48:19.438Z,52.75
2023-05-02T12:50:50.227Z,52.96
2023-05-02T12:53:19.524Z,53.29
2023-05-02T12:55:48.422Z,53.19
2023-05-02T12:58:17.476Z,53.71
2023-05-02T13:00:47.798Z,53.19
2023-05-02T13:03:17.212Z,52.96
2023-05-02T13:05:46.444Z,53.09
2023-05-02T13:08:17.031Z,53.18
2023-05-02T13:10:45.951Z,52.86
2023-05-02T13:13:16.133Z,52.76
2023-05-02T13:15:45.174Z,53.31
2023-05-02T13:18:14.433Z,54.13
2023-05-02T13:20:43.480Z,53.95
2023-05-02T13:23:12.807Z,54.21
2023-05-02T13:25:43.122Z,53.87
2023-05-02T13:28:12.168Z,53.86
2023-05-02T13:30:41.189Z,53.75
2023-05-02T13:33:10.302Z,53.75
2023-05-02T13:35:39.319Z,53.75
2023-05-02T13:38:08.349Z,53.56
2023-05-02T13:40:37.202Z,53.69
2023-05-02T13:43:07.612Z,53.25
2023-05-02T13:45:36.653Z,52.90
2023-05-02T13:48:06.308Z,52.63
2023-05-02T13:50:37.395Z,52.54
2023-05-02T13:53:06.606Z,52.37
2023-05-02T13:55:35.622Z,52.11
2023-05-02T13:58:05.544Z,51.44
2023-05-02T14:00:35.760Z,51.37
2023-05-02T14:03:05.226Z,50.96
2023-05-02T14:05:34.435Z,50.73
2023-05-02T14:08:03.495Z,50.57
2023-05-02T14:10:32.334Z,50.31
2023-05-02T14:13:01.586Z,49.60
2023-05-02T14:15:30.660Z,49.60
2023-05-02T14:18:01.307Z,49.47
2023-05-02T14:20:30.369Z,49.61
2023-05-02T14:22:59.452Z,49.71
2023-05-02T14:25:28.422Z,49.67
2023-05-02T14:27:57.457Z,49.98
2023-05-02T14:30:26.235Z,49.94
2023-05-02T14:32:55.908Z,49.54
2023-05-02T14:35:26.289Z,49.37
2023-05-02T14:37:55.584Z,49.50
2023-05-02T14:40:24.350Z,49.43
2023-05-02T14:42:53.587Z,48.94
2023-05-02T14:45:22.587Z,47.92
2023-05-02T14:47:52.530Z,48.02
2023-05-02T14:50:21.546Z,48.05
2023-05-02T14:52:52.069Z,47.91
2023-05-02T14:55:20.946Z,48.19
2023-05-02T14:57:50.445Z,47.82
2023-05-02T15:00:21.159Z,48.08
2023-05-02T15:02:50.286Z,47.80
2023-05-02T15:05:19.352Z,47.99
2023-05-02T15:07:48.445Z,47.65
2023-05-02T15:10:18.786Z,47.76
2023-05-02T15:12:50.903Z,47.27
2023-05-02T15:15:20.403Z,46.79
2023-05-02T15:17:49.477Z,46.90
2023-05-02T15:20:18.239Z,46.88
2023-05-02T15:22:47.342Z,46.22
2023-05-02T15:25:16.187Z,46.00
2023-05-02T15:27:46.738Z,45.52
2023-05-02T15:30:17.711Z,45.10
2023-05-02T15:32:47.330Z,45.29
2023-05-02T15:35:16.184Z,45.49
2023-05-02T15:37:45.421Z,46.04
2023-05-02T15:40:15.441Z,44.84
2023-05-02T15:42:46.164Z,44.78
2023-05-02T15:45:15.021Z,42.31
2023-05-02T15:47:44.218Z,41.67
2023-05-02T15:50:13.644Z,40.10
2023-05-02T15:52:42.801Z,38.67
2023-05-02T15:55:11.836Z,39.20
2023-05-02T15:57:40.868Z,39.96
2023-05-02T16:00:16.840Z,39.23
2023-05-02T16:02:46.374Z,39.71
2023-05-02T16:05:15.329Z,40.19
2023-05-02T16:07:44.366Z,41.74
2023-05-02T16:10:13.502Z,42.11
2023-05-02T16:12:42.686Z,42.82
2023-05-02T16:15:13.014Z,43.52
2023-05-02T16:17:43.027Z,44.24
2023-05-02T16:20:13.034Z,44.43
2023-05-02T16:22:44.027Z,43.48
2023-05-02T16:25:12.889Z,42.95
2023-05-02T16:27:42.086Z,42.38
2023-05-02T16:30:12.772Z,42.31
2023-05-02T16:32:42.065Z,42.67
2023-05-02T16:35:13.108Z,41.28
2023-05-02T16:37:42.860Z,42.63
2023-05-02T16:40:12.319Z,42.83
2023-05-02T16:42:41.517Z,41.82
2023-05-02T16:45:11.059Z,42.96
2023-05-02T16:47:41.738Z,41.96
2023-05-02T16:50:10.860Z,41.71
2023-05-02T16:52:39.893Z,42.54
2023-05-02T16:55:09.057Z,42.62
2023-05-02T16:57:39.115Z,41.77
2023-05-02T17:00:11.109Z,42.68
2023-05-02T17:02:42.154Z,42.55
2023-05-02T17:05:11.752Z,42.34
2023-05-02T17:07:40.766Z,42.08
2023-05-02T17:10:10.114Z,43.22
2023-05-02T17:12:39.324Z,42.91
2023-05-02T17:15:08.580Z,42.80
2023-05-02T17:17:37.746Z,42.64
2023-05-02T17:20:08.712Z,43.20
2023-05-02T17:22:38.793Z,42.85
2023-05-02T17:25:07.935Z,43.07
2023-05-02T17:27:39.773Z,42.87
2023-05-02T17:30:10.173Z,42.99
2023-05-02T17:32:40.706Z,42.99
2023-05-02T17:35:11.710Z,42.95
2023-05-02T17:37:41.217Z,43.15
2023-05-02T17:40:11.070Z,42.78
2023-05-02T17:42:40.478Z,42.95
2023-05-02T17:45:09.977Z,42.88
2023-05-02T17:47:40.428Z,42.95
2023-05-02T17:50:09.693Z,43.08
2023-05-02T17:52:40.259Z,43.19
2023-05-02T17:55:10.044Z,43.25
2023-05-02T17:57:40.792Z,43.18
2023-05-02T18:00:10.262Z,43.04
2023-05-02T18:02:39.967Z,43.49
2023-05-02T18:05:09.612Z,43.13
2023-05-02T18:07:41.509Z,43.58
2023-05-02T18:10:11.789Z,43.42
2023-05-02T18:12:40.862Z,43.45
2023-05-02T18:15:10.047Z,43.21
2023-05-02T18:17:39.426Z,43.36
2023-05-02T18:20:10.017Z,43.54
2023-05-02T18:22:40.104Z,43.74
2023-05-02T18:25:10.571Z,43.81
2023-05-02T18:27:39.915Z,43.67
2023-05-02T18:30:09.342Z,43.51
2023-05-02T18:32:39.868Z,43.71
2023-05-02T18:35:10.487Z,43.40
2023-05-02T18:37:41.167Z,43.35
2023-05-02T18:40:12.628Z,43.25
2023-05-02T18:42:41.871Z,43.74
2023-05-02T18:45:10.807Z,43.46
2023-05-02T18:47:40.240Z,44.11
2023-05-02T18:50:09.653Z,44.58
2023-05-02T18:52:38.917Z,44.38
2023-05-02T18:55:08.175Z,44.33
2023-05-02T18:57:38.728Z,43.82
2023-05-02T19:00:10.553Z,43.50
2023-05-02T19:02:45.437Z,44.18
2023-05-02T19:05:14.697Z,43.75
2023-05-02T19:07:45.760Z,44.50
2023-05-02T19:10:14.778Z,45.17
2023-05-02T19:12:46.999Z,44.97
2023-05-02T19:15:16.242Z,45.40
2023-05-02T19:17:45.733Z,45.10
2023-05-02T19:20:14.742Z,44.74
2023-05-02T19:22:46.156Z,44.42
2023-05-02T19:25:15.232Z,45.48
2023-05-02T19:27:47.752Z,45.76
2023-05-02T19:30:16.801Z,45.31
2023-05-02T19:32:48.628Z,45.36
2023-05-02T19:35:17.546Z,45.65
2023-05-02T19:37:46.644Z,45.45
2023-05-02T19:40:16.670Z,45.24
2023-05-02T19:42:47.805Z,45.91
2023-05-02T19:45:17.340Z,45.70
2023-05-02T19:47:47.318Z,45.50
2023-05-02T19:50:17.015Z,45.60
2023-05-02T19:52:46.179Z,45.12
2023-05-02T19:55:16.153Z,45.58
2023-05-02T19:57:48.828Z,45.63
2023-05-02T20:00:18.800Z,45.72
2023-05-02T20:02:51.317Z,45.29
2023-05-02T20:05:21.204Z,45.73
2023-05-02T20:07:53.712Z,45.55
2023-05-02T20:10:23.090Z,46.11
2023-05-02T20:12:56.069Z,45.97
2023-05-02T20:15:24.944Z,46.03
2023-05-02T20:17:57.075Z,46.40
2023-05-02T20:20:26.508Z,45.90
2023-05-02T20:22:58.972Z,46.82
2023-05-02T20:25:28.631Z,46.65
2023-05-02T20:28:00.000Z,46.02
2023-05-02T20:30:35.577Z,45.92
2023-05-02T20:33:14.905Z,45.85
2023-05-02T20:35:45.026Z,46.27
2023-05-02T20:38:18.097Z,47.58
2023-05-02T20:40:49.193Z,45.81
2023-05-02T20:43:23.205Z,46.30
2023-05-02T20:45:54.628Z,47.10
2023-05-02T20:48:24.563Z,46.73
2023-05-02T20:50:55.495Z,47.31
2023-05-02T20:53:25.265Z,47.16
2023-05-02T20:55:54.145Z,47.34
2023-05-02T20:58:24.699Z,46.69
2023-05-02T21:00:54.210Z,47.14
2023-05-02T21:03:23.468Z,46.68
2023-05-02T21:05:53.485Z,46.56
2023-05-02T21:08:22.789Z,46.57
2023-05-02T21:10:51.617Z,46.38
2023-05-02T21:13:20.873Z,46.49
2023-05-02T21:15:51.035Z,46.75
2023-05-02T21:18:20.108Z,47.94
2023-05-02T21:20:49.444Z,46.86
2023-05-02T21:23:18.549Z,46.67
2023-05-02T21:25:48.723Z,47.04
2023-05-02T21:28:17.859Z,47.03
2023-05-02T21:30:46.621Z,46.89
2023-05-02T21:33:17.751Z,46.63
2023-05-02T21:35:46.774Z,47.23
2023-05-02T21:38:15.816Z,48.71
2023-05-02T21:40:44.673Z,51.46
2023-05-02T21:43:13.790Z,50.73
2023-05-02T21:45:46.606Z,50.58
2023-05-02T21:48:17.602Z,52.86
2023-05-02T21:50:46.745Z,53.14
2023-05-02T21:53:15.852Z,53.02
2023-05-02T21:55:44.732Z,51.71
2023-05-02T21:58:13.795Z,52.62
2023-05-02T22:00:43.419Z,52.03
2023-05-02T22:03:12.697Z,50.80
2023-05-02T22:05:43.150Z,51.30
2023-05-02T22:08:13.529Z,53.69
2023-05-02T22:10:43.271Z,51.63
2023-05-02T22:13:13.489Z,53.04
2023-05-02T22:15:42.589Z,51.46
2023-05-02T22:18:13.857Z,50.83
2023-05-02T22:20:44.517Z,50.98
2023-05-02T22:23:13.761Z,51.61
2023-05-02T22:25:44.359Z,52.72
2023-05-02T22:28:13.897Z,52.28
2023-05-02T22:30:43.481Z,51.38
2023-05-02T22:33:12.917Z,51.00
2023-05-02T22:35:42.135Z,50.36
2023-05-02T22:38:15.288Z,49.87
2023-05-02T22:40:44.220Z,49.57
2023-05-02T22:43:13.270Z,50.02
2023-05-02T22:45:42.119Z,49.39
2023-05-02T22:48:11.839Z,49.15
2023-05-02T22:50:43.128Z,48.93
2023-05-02T22:53:13.696Z,49.16
2023-05-02T22:55:42.472Z,49.13
2023-05-02T22:58:11.884Z,49.42
2023-05-02T23:00:40.744Z,49.86
2023-05-02T23:03:10.555Z,51.83
2023-05-02T23:05:39.573Z,49.71
2023-05-02T23:08:08.863Z,49.22
2023-05-02T23:10:39.093Z,49.38
2023-05-02T23:13:08.211Z,49.19
2023-05-02T23:15:36.977Z,49.39
2023-05-02T23:18:06.972Z,49.30
2023-05-02T23:20:35.891Z,49.28
2023-05-02T23:23:05.287Z,49.03
2023-05-02T23:25:35.994Z,48.92
2023-05-02T23:28:06.681Z,49.11
2023-05-02T23:30:35.583Z,49.57
2023-05-02T23:33:05.078Z,49.00
2023-05-02T23:35:34.314Z,48.59
2023-05-02T23:38:05.858Z,48.67
2023-05-02T23:40:34.833Z,48.68
2023-05-02T23:43:03.981Z,48.72
2023-05-02T23:45:34.274Z,50.93
2023-05-02T23:48:03.594Z,49.10
2023-05-02T23:50:32.931Z,49.88
2023-05-02T23:53:02.328Z,49.11
2023-05-02T23:55:31.359Z,50.39
2023-05-02T23:58:00.516Z,50.25
